<?xml version="1.0" encoding="UTF-8" standalone="no" ?>
<gpx xmlns="http://www.topografix.com/GPX/1/1" xmlns:xsi="http://www.w3.org/2001/XMLSchema-instance" xsi:schemaLocation="http://www.topografix.com/GPX/1/1 http://www.topografix.com/GPX/1/1/gpx.xsd" version="1.1" creator="VisuGPX - https://www.visugpx.com">
  <metadata>
    <name>14573761-Et10 Gimont - Auch</name>
  </metadata>
  <trk>
    <name><![CDATA[14573761-Et10 Gimont - Auch]]></name>
    <trkseg>
      <trkpt lat="43.62733" lon="0.87466">
        <ele>178</ele>
        <time>2022-04-16T14:44:47Z</time>
      </trkpt>
      <trkpt lat="43.62752" lon="0.87435">
        <ele>177</ele>
        <time>2022-04-16T14:45:26Z</time>
      </trkpt>
      <trkpt lat="43.62778" lon="0.87385">
        <ele>171</ele>
        <time>2022-04-16T14:46:26Z</time>
      </trkpt>
      <trkpt lat="43.62827" lon="0.87275">
        <ele>162</ele>
        <time>2022-04-16T14:48:30Z</time>
      </trkpt>
      <trkpt lat="43.62914" lon="0.87102">
        <ele>150</ele>
        <time>2022-04-16T14:51:54Z</time>
      </trkpt>
      <trkpt lat="43.62929" lon="0.87075">
        <ele>150</ele>
        <time>2022-04-16T14:52:27Z</time>
      </trkpt>
      <trkpt lat="43.62975" lon="0.86981">
        <ele>149</ele>
        <time>2022-04-16T14:54:16Z</time>
      </trkpt>
      <trkpt lat="43.62994" lon="0.86997">
        <ele>150</ele>
        <time>2022-04-16T14:54:46Z</time>
      </trkpt>
      <trkpt lat="43.62986" lon="0.87013">
        <ele>150</ele>
        <time>2022-04-16T14:55:05Z</time>
      </trkpt>
      <trkpt lat="43.62955" lon="0.86991">
        <ele>148</ele>
        <time>2022-04-16T14:55:51Z</time>
      </trkpt>
      <trkpt lat="43.62955" lon="0.86975">
        <ele>149</ele>
        <time>2022-04-16T14:56:07Z</time>
      </trkpt>
      <trkpt lat="43.62958" lon="0.86954">
        <ele>149</ele>
        <time>2022-04-16T14:56:28Z</time>
      </trkpt>
      <trkpt lat="43.63006" lon="0.8677">
        <ele>150</ele>
        <time>2022-04-16T14:59:36Z</time>
      </trkpt>
      <trkpt lat="43.63094" lon="0.86496">
        <ele>156</ele>
        <time>2022-04-16T15:04:26Z</time>
      </trkpt>
      <trkpt lat="43.63117" lon="0.86459">
        <ele>157</ele>
        <time>2022-04-16T15:05:13Z</time>
      </trkpt>
      <trkpt lat="43.631" lon="0.86423">
        <ele>158</ele>
        <time>2022-04-16T15:05:55Z</time>
      </trkpt>
      <trkpt lat="43.63057" lon="0.86396">
        <ele>156</ele>
        <time>2022-04-16T15:06:58Z</time>
      </trkpt>
      <trkpt lat="43.63021" lon="0.86333">
        <ele>156</ele>
        <time>2022-04-16T15:08:15Z</time>
      </trkpt>
      <trkpt lat="43.62975" lon="0.86062">
        <ele>161</ele>
        <time>2022-04-16T15:12:44Z</time>
      </trkpt>
      <trkpt lat="43.62983" lon="0.8599">
        <ele>161</ele>
        <time>2022-04-16T15:13:54Z</time>
      </trkpt>
      <trkpt lat="43.63041" lon="0.85738">
        <ele>164</ele>
        <time>2022-04-16T15:18:10Z</time>
      </trkpt>
      <trkpt lat="43.6301" lon="0.8558">
        <ele>165</ele>
        <time>2022-04-16T15:20:48Z</time>
      </trkpt>
      <trkpt lat="43.63006" lon="0.85488">
        <ele>166</ele>
        <time>2022-04-16T15:22:17Z</time>
      </trkpt>
      <trkpt lat="43.62932" lon="0.85418">
        <ele>170</ele>
        <time>2022-04-16T15:24:17Z</time>
      </trkpt>
      <trkpt lat="43.62838" lon="0.85378">
        <ele>179</ele>
        <time>2022-04-16T15:26:28Z</time>
      </trkpt>
      <trkpt lat="43.62809" lon="0.85294">
        <ele>182</ele>
        <time>2022-04-16T15:27:58Z</time>
      </trkpt>
      <trkpt lat="43.62711" lon="0.85271">
        <ele>192</ele>
        <time>2022-04-16T15:30:10Z</time>
      </trkpt>
      <trkpt lat="43.62705" lon="0.85146">
        <ele>196</ele>
        <time>2022-04-16T15:32:11Z</time>
      </trkpt>
      <trkpt lat="43.6266" lon="0.85059">
        <ele>199</ele>
        <time>2022-04-16T15:33:55Z</time>
      </trkpt>
      <trkpt lat="43.62626" lon="0.84947">
        <ele>200</ele>
        <time>2022-04-16T15:35:52Z</time>
      </trkpt>
      <trkpt lat="43.6259" lon="0.84753">
        <ele>207</ele>
        <time>2022-04-16T15:39:05Z</time>
      </trkpt>
      <trkpt lat="43.62657" lon="0.84511">
        <ele>206</ele>
        <time>2022-04-16T15:43:16Z</time>
      </trkpt>
      <trkpt lat="43.62409" lon="0.84115">
        <ele>206</ele>
        <time>2022-04-16T15:51:42Z</time>
      </trkpt>
      <trkpt lat="43.62335" lon="0.83925">
        <ele>190</ele>
        <time>2022-04-16T15:55:10Z</time>
      </trkpt>
      <trkpt lat="43.62241" lon="0.83728">
        <ele>179</ele>
        <time>2022-04-16T15:58:58Z</time>
      </trkpt>
      <trkpt lat="43.62215" lon="0.83558">
        <ele>180</ele>
        <time>2022-04-16T16:01:46Z</time>
      </trkpt>
      <trkpt lat="43.62162" lon="0.83395">
        <ele>191</ele>
        <time>2022-04-16T16:04:38Z</time>
      </trkpt>
      <trkpt lat="43.62128" lon="0.83334">
        <ele>194</ele>
        <time>2022-04-16T16:05:53Z</time>
      </trkpt>
      <trkpt lat="43.62069" lon="0.83112">
        <ele>207</ele>
        <time>2022-04-16T16:09:41Z</time>
      </trkpt>
      <trkpt lat="43.62032" lon="0.82844">
        <ele>221</ele>
        <time>2022-04-16T16:14:05Z</time>
      </trkpt>
      <trkpt lat="43.62054" lon="0.82771">
        <ele>222</ele>
        <time>2022-04-16T16:15:21Z</time>
      </trkpt>
      <trkpt lat="43.62022" lon="0.82088">
        <ele>199</ele>
        <time>2022-04-16T16:26:22Z</time>
      </trkpt>
      <trkpt lat="43.62032" lon="0.81959">
        <ele>197</ele>
        <time>2022-04-16T16:28:28Z</time>
      </trkpt>
      <trkpt lat="43.62067" lon="0.81863">
        <ele>197</ele>
        <time>2022-04-16T16:30:12Z</time>
      </trkpt>
      <trkpt lat="43.621" lon="0.81817">
        <ele>198</ele>
        <time>2022-04-16T16:31:14Z</time>
      </trkpt>
      <trkpt lat="43.62084" lon="0.81778">
        <ele>198</ele>
        <time>2022-04-16T16:31:57Z</time>
      </trkpt>
      <trkpt lat="43.62099" lon="0.8149">
        <ele>211</ele>
        <time>2022-04-16T16:36:36Z</time>
      </trkpt>
      <trkpt lat="43.62116" lon="0.81365">
        <ele>214</ele>
        <time>2022-04-16T16:38:39Z</time>
      </trkpt>
      <trkpt lat="43.62106" lon="0.81005">
        <ele>231</ele>
        <time>2022-04-16T16:44:27Z</time>
      </trkpt>
      <trkpt lat="43.6208" lon="0.80913">
        <ele>229</ele>
        <time>2022-04-16T16:46:03Z</time>
      </trkpt>
      <trkpt lat="43.61959" lon="0.80785">
        <ele>220</ele>
        <time>2022-04-16T16:49:26Z</time>
      </trkpt>
      <trkpt lat="43.6184" lon="0.80559">
        <ele>230</ele>
        <time>2022-04-16T16:53:56Z</time>
      </trkpt>
      <trkpt lat="43.61801" lon="0.80358">
        <ele>230</ele>
        <time>2022-04-16T16:57:17Z</time>
      </trkpt>
      <trkpt lat="43.61916" lon="0.79832">
        <ele>220</ele>
        <time>2022-04-16T17:06:08Z</time>
      </trkpt>
      <trkpt lat="43.61973" lon="0.79622">
        <ele>215</ele>
        <time>2022-04-16T17:09:45Z</time>
      </trkpt>
      <trkpt lat="43.6198" lon="0.79495">
        <ele>211</ele>
        <time>2022-04-16T17:11:48Z</time>
      </trkpt>
      <trkpt lat="43.61977" lon="0.79486">
        <ele>211</ele>
        <time>2022-04-16T17:11:57Z</time>
      </trkpt>
      <trkpt lat="43.61934" lon="0.79282">
        <ele>205</ele>
        <time>2022-04-16T17:15:22Z</time>
      </trkpt>
      <trkpt lat="43.61932" lon="0.79138">
        <ele>201</ele>
        <time>2022-04-16T17:17:42Z</time>
      </trkpt>
      <trkpt lat="43.62024" lon="0.78588">
        <ele>201</ele>
        <time>2022-04-16T17:26:47Z</time>
      </trkpt>
      <trkpt lat="43.62022" lon="0.78336">
        <ele>198</ele>
        <time>2022-04-16T17:30:50Z</time>
      </trkpt>
      <trkpt lat="43.61967" lon="0.7832">
        <ele>199</ele>
        <time>2022-04-16T17:32:05Z</time>
      </trkpt>
      <trkpt lat="43.61894" lon="0.78091">
        <ele>195</ele>
        <time>2022-04-16T17:36:07Z</time>
      </trkpt>
      <trkpt lat="43.61894" lon="0.78036">
        <ele>195</ele>
        <time>2022-04-16T17:37:00Z</time>
      </trkpt>
      <trkpt lat="43.61926" lon="0.7787">
        <ele>194</ele>
        <time>2022-04-16T17:39:46Z</time>
      </trkpt>
      <trkpt lat="43.61918" lon="0.77783">
        <ele>193</ele>
        <time>2022-04-16T17:41:11Z</time>
      </trkpt>
      <trkpt lat="43.61815" lon="0.7766">
        <ele>180</ele>
        <time>2022-04-16T17:44:13Z</time>
      </trkpt>
      <trkpt lat="43.61803" lon="0.77574">
        <ele>176</ele>
        <time>2022-04-16T17:45:37Z</time>
      </trkpt>
      <trkpt lat="43.61824" lon="0.77401">
        <ele>164</ele>
        <time>2022-04-16T17:48:27Z</time>
      </trkpt>
      <trkpt lat="43.61602" lon="0.77168">
        <ele>159</ele>
        <time>2022-04-16T17:54:39Z</time>
      </trkpt>
      <trkpt lat="43.61586" lon="0.77113">
        <ele>158</ele>
        <time>2022-04-16T17:55:36Z</time>
      </trkpt>
      <trkpt lat="43.61531" lon="0.77023">
        <ele>157</ele>
        <time>2022-04-16T17:57:30Z</time>
      </trkpt>
      <trkpt lat="43.61674" lon="0.76866">
        <ele>154</ele>
        <time>2022-04-16T18:01:34Z</time>
      </trkpt>
      <trkpt lat="43.61784" lon="0.76687">
        <ele>158</ele>
        <time>2022-04-16T18:05:20Z</time>
      </trkpt>
      <trkpt lat="43.61818" lon="0.76698">
        <ele>160</ele>
        <time>2022-04-16T18:06:07Z</time>
      </trkpt>
      <trkpt lat="43.61919" lon="0.76809">
        <ele>156</ele>
        <time>2022-04-16T18:08:59Z</time>
      </trkpt>
      <trkpt lat="43.62022" lon="0.76858">
        <ele>155</ele>
        <time>2022-04-16T18:11:25Z</time>
      </trkpt>
      <trkpt lat="43.62085" lon="0.76673">
        <ele>160</ele>
        <time>2022-04-16T18:14:42Z</time>
      </trkpt>
      <trkpt lat="43.62117" lon="0.76637">
        <ele>164</ele>
        <time>2022-04-16T18:15:37Z</time>
      </trkpt>
      <trkpt lat="43.6217" lon="0.76485">
        <ele>172</ele>
        <time>2022-04-16T18:18:20Z</time>
      </trkpt>
      <trkpt lat="43.62206" lon="0.76353">
        <ele>173</ele>
        <time>2022-04-16T18:20:36Z</time>
      </trkpt>
      <trkpt lat="43.62183" lon="0.76192">
        <ele>173</ele>
        <time>2022-04-16T18:23:15Z</time>
      </trkpt>
      <trkpt lat="43.62277" lon="0.75872">
        <ele>190</ele>
        <time>2022-04-16T18:28:49Z</time>
      </trkpt>
      <trkpt lat="43.62326" lon="0.75777">
        <ele>194</ele>
        <time>2022-04-16T18:30:41Z</time>
      </trkpt>
      <trkpt lat="43.62437" lon="0.75487">
        <ele>202</ele>
        <time>2022-04-16T18:35:58Z</time>
      </trkpt>
      <trkpt lat="43.6246" lon="0.75363">
        <ele>202</ele>
        <time>2022-04-16T18:38:02Z</time>
      </trkpt>
      <trkpt lat="43.6247" lon="0.75276">
        <ele>201</ele>
        <time>2022-04-16T18:39:27Z</time>
      </trkpt>
      <trkpt lat="43.62507" lon="0.75193">
        <ele>203</ele>
        <time>2022-04-16T18:41:01Z</time>
      </trkpt>
      <trkpt lat="43.6254" lon="0.75165">
        <ele>205</ele>
        <time>2022-04-16T18:41:53Z</time>
      </trkpt>
      <trkpt lat="43.62749" lon="0.74899">
        <ele>220</ele>
        <time>2022-04-16T18:48:12Z</time>
      </trkpt>
      <trkpt lat="43.62941" lon="0.74712">
        <ele>223</ele>
        <time>2022-04-16T18:53:25Z</time>
      </trkpt>
      <trkpt lat="43.62995" lon="0.74584">
        <ele>229</ele>
        <time>2022-04-16T18:55:49Z</time>
      </trkpt>
      <trkpt lat="43.63023" lon="0.74398">
        <ele>226</ele>
        <time>2022-04-16T18:58:52Z</time>
      </trkpt>
      <trkpt lat="43.63027" lon="0.74236">
        <ele>224</ele>
        <time>2022-04-16T19:01:29Z</time>
      </trkpt>
      <trkpt lat="43.62739" lon="0.7395">
        <ele>198</ele>
        <time>2022-04-16T19:09:22Z</time>
      </trkpt>
      <trkpt lat="43.62658" lon="0.73812">
        <ele>192</ele>
        <time>2022-04-16T19:12:14Z</time>
      </trkpt>
      <trkpt lat="43.6259" lon="0.73622">
        <ele>191</ele>
        <time>2022-04-16T19:15:38Z</time>
      </trkpt>
      <trkpt lat="43.62523" lon="0.73555">
        <ele>197</ele>
        <time>2022-04-16T19:17:29Z</time>
      </trkpt>
      <trkpt lat="43.62533" lon="0.73504">
        <ele>201</ele>
        <time>2022-04-16T19:18:20Z</time>
      </trkpt>
      <trkpt lat="43.62521" lon="0.73413">
        <ele>201</ele>
        <time>2022-04-16T19:19:49Z</time>
      </trkpt>
      <trkpt lat="43.62537" lon="0.73347">
        <ele>200</ele>
        <time>2022-04-16T19:20:56Z</time>
      </trkpt>
      <trkpt lat="43.6253" lon="0.73193">
        <ele>198</ele>
        <time>2022-04-16T19:23:25Z</time>
      </trkpt>
      <trkpt lat="43.62496" lon="0.73123">
        <ele>199</ele>
        <time>2022-04-16T19:24:47Z</time>
      </trkpt>
      <trkpt lat="43.62429" lon="0.72928">
        <ele>191</ele>
        <time>2022-04-16T19:28:15Z</time>
      </trkpt>
      <trkpt lat="43.62373" lon="0.72803">
        <ele>187</ele>
        <time>2022-04-16T19:30:37Z</time>
      </trkpt>
      <trkpt lat="43.62407" lon="0.72695">
        <ele>187</ele>
        <time>2022-04-16T19:32:31Z</time>
      </trkpt>
      <trkpt lat="43.62441" lon="0.72504">
        <ele>191</ele>
        <time>2022-04-16T19:35:41Z</time>
      </trkpt>
      <trkpt lat="43.6244" lon="0.72425">
        <ele>193</ele>
        <time>2022-04-16T19:36:57Z</time>
      </trkpt>
      <trkpt lat="43.6251" lon="0.72377">
        <ele>197</ele>
        <time>2022-04-16T19:38:42Z</time>
      </trkpt>
      <trkpt lat="43.62531" lon="0.7219">
        <ele>202</ele>
        <time>2022-04-16T19:41:44Z</time>
      </trkpt>
      <trkpt lat="43.6251" lon="0.71975">
        <ele>198</ele>
        <time>2022-04-16T19:45:14Z</time>
      </trkpt>
      <trkpt lat="43.62495" lon="0.71901">
        <ele>198</ele>
        <time>2022-04-16T19:46:28Z</time>
      </trkpt>
      <trkpt lat="43.62504" lon="0.71829">
        <ele>199</ele>
        <time>2022-04-16T19:47:39Z</time>
      </trkpt>
      <trkpt lat="43.6261" lon="0.7168">
        <ele>202</ele>
        <time>2022-04-16T19:51:01Z</time>
      </trkpt>
      <trkpt lat="43.62648" lon="0.71614">
        <ele>206</ele>
        <time>2022-04-16T19:52:22Z</time>
      </trkpt>
      <trkpt lat="43.62697" lon="0.71561">
        <ele>209</ele>
        <time>2022-04-16T19:53:45Z</time>
      </trkpt>
      <trkpt lat="43.62798" lon="0.71207">
        <ele>226</ele>
        <time>2022-04-16T19:59:53Z</time>
      </trkpt>
      <trkpt lat="43.62711" lon="0.71192">
        <ele>228</ele>
        <time>2022-04-16T20:01:50Z</time>
      </trkpt>
      <trkpt lat="43.62756" lon="0.70857">
        <ele>244</ele>
        <time>2022-04-16T20:07:19Z</time>
      </trkpt>
      <trkpt lat="43.6276" lon="0.70693">
        <ele>243</ele>
        <time>2022-04-16T20:09:57Z</time>
      </trkpt>
      <trkpt lat="43.62774" lon="0.70612">
        <ele>237</ele>
        <time>2022-04-16T20:11:18Z</time>
      </trkpt>
      <trkpt lat="43.62783" lon="0.70453">
        <ele>228</ele>
        <time>2022-04-16T20:13:52Z</time>
      </trkpt>
      <trkpt lat="43.62777" lon="0.70422">
        <ele>228</ele>
        <time>2022-04-16T20:14:23Z</time>
      </trkpt>
      <trkpt lat="43.62851" lon="0.69831">
        <ele>216</ele>
        <time>2022-04-16T20:24:02Z</time>
      </trkpt>
      <trkpt lat="43.62927" lon="0.69507">
        <ele>204</ele>
        <time>2022-04-16T20:29:31Z</time>
      </trkpt>
      <trkpt lat="43.6292" lon="0.6947">
        <ele>201</ele>
        <time>2022-04-16T20:30:08Z</time>
      </trkpt>
      <trkpt lat="43.62938" lon="0.69442">
        <ele>199</ele>
        <time>2022-04-16T20:30:44Z</time>
      </trkpt>
      <trkpt lat="43.62924" lon="0.69366">
        <ele>196</ele>
        <time>2022-04-16T20:32:00Z</time>
      </trkpt>
      <trkpt lat="43.62986" lon="0.69196">
        <ele>207</ele>
        <time>2022-04-16T20:35:04Z</time>
      </trkpt>
      <trkpt lat="43.63072" lon="0.69162">
        <ele>213</ele>
        <time>2022-04-16T20:37:03Z</time>
      </trkpt>
      <trkpt lat="43.63128" lon="0.6898">
        <ele>220</ele>
        <time>2022-04-16T20:40:14Z</time>
      </trkpt>
      <trkpt lat="43.63182" lon="0.68864">
        <ele>222</ele>
        <time>2022-04-16T20:42:27Z</time>
      </trkpt>
      <trkpt lat="43.63304" lon="0.68653">
        <ele>214</ele>
        <time>2022-04-16T20:46:48Z</time>
      </trkpt>
      <trkpt lat="43.63332" lon="0.68574">
        <ele>212</ele>
        <time>2022-04-16T20:48:13Z</time>
      </trkpt>
      <trkpt lat="43.63474" lon="0.68549">
        <ele>206</ele>
        <time>2022-04-16T20:51:24Z</time>
      </trkpt>
      <trkpt lat="43.63564" lon="0.68537">
        <ele>200</ele>
        <time>2022-04-16T20:53:25Z</time>
      </trkpt>
      <trkpt lat="43.63654" lon="0.68495">
        <ele>196</ele>
        <time>2022-04-16T20:55:32Z</time>
      </trkpt>
      <trkpt lat="43.63688" lon="0.68448">
        <ele>197</ele>
        <time>2022-04-16T20:56:36Z</time>
      </trkpt>
      <trkpt lat="43.63737" lon="0.68307">
        <ele>203</ele>
        <time>2022-04-16T20:59:07Z</time>
      </trkpt>
      <trkpt lat="43.6374" lon="0.68273">
        <ele>205</ele>
        <time>2022-04-16T20:59:40Z</time>
      </trkpt>
      <trkpt lat="43.63864" lon="0.68139">
        <ele>205</ele>
        <time>2022-04-16T21:03:10Z</time>
      </trkpt>
      <trkpt lat="43.63961" lon="0.67971">
        <ele>202</ele>
        <time>2022-04-16T21:06:38Z</time>
      </trkpt>
      <trkpt lat="43.64048" lon="0.67789">
        <ele>195</ele>
        <time>2022-04-16T21:10:08Z</time>
      </trkpt>
      <trkpt lat="43.64083" lon="0.67655">
        <ele>187</ele>
        <time>2022-04-16T21:12:26Z</time>
      </trkpt>
      <trkpt lat="43.64114" lon="0.67601">
        <ele>181</ele>
        <time>2022-04-16T21:13:32Z</time>
      </trkpt>
      <trkpt lat="43.6414" lon="0.67511">
        <ele>175</ele>
        <time>2022-04-16T21:15:06Z</time>
      </trkpt>
      <trkpt lat="43.64185" lon="0.67438">
        <ele>170</ele>
        <time>2022-04-16T21:16:39Z</time>
      </trkpt>
      <trkpt lat="43.64201" lon="0.67316">
        <ele>169</ele>
        <time>2022-04-16T21:18:38Z</time>
      </trkpt>
      <trkpt lat="43.64222" lon="0.67039">
        <ele>182</ele>
        <time>2022-04-16T21:23:07Z</time>
      </trkpt>
      <trkpt lat="43.64248" lon="0.66964">
        <ele>183</ele>
        <time>2022-04-16T21:24:28Z</time>
      </trkpt>
      <trkpt lat="43.642" lon="0.66738">
        <ele>196</ele>
        <time>2022-04-16T21:28:15Z</time>
      </trkpt>
      <trkpt lat="43.64193" lon="0.66459">
        <ele>214</ele>
        <time>2022-04-16T21:32:45Z</time>
      </trkpt>
      <trkpt lat="43.64206" lon="0.66247">
        <ele>233</ele>
        <time>2022-04-16T21:36:10Z</time>
      </trkpt>
      <trkpt lat="43.64264" lon="0.66281">
        <ele>230</ele>
        <time>2022-04-16T21:37:34Z</time>
      </trkpt>
      <trkpt lat="43.64331" lon="0.66289">
        <ele>234</ele>
        <time>2022-04-16T21:39:04Z</time>
      </trkpt>
      <trkpt lat="43.64386" lon="0.66245">
        <ele>234</ele>
        <time>2022-04-16T21:40:29Z</time>
      </trkpt>
      <trkpt lat="43.64432" lon="0.66228">
        <ele>232</ele>
        <time>2022-04-16T21:41:32Z</time>
      </trkpt>
      <trkpt lat="43.64528" lon="0.66141">
        <ele>231</ele>
        <time>2022-04-16T21:44:06Z</time>
      </trkpt>
      <trkpt lat="43.64615" lon="0.66034">
        <ele>235</ele>
        <time>2022-04-16T21:46:41Z</time>
      </trkpt>
      <trkpt lat="43.64653" lon="0.65933">
        <ele>235</ele>
        <time>2022-04-16T21:48:31Z</time>
      </trkpt>
      <trkpt lat="43.6471" lon="0.65859">
        <ele>231</ele>
        <time>2022-04-16T21:50:15Z</time>
      </trkpt>
      <trkpt lat="43.64725" lon="0.65812">
        <ele>232</ele>
        <time>2022-04-16T21:51:05Z</time>
      </trkpt>
      <trkpt lat="43.64788" lon="0.65734">
        <ele>228</ele>
        <time>2022-04-16T21:52:58Z</time>
      </trkpt>
      <trkpt lat="43.64843" lon="0.65717">
        <ele>223</ele>
        <time>2022-04-16T21:54:13Z</time>
      </trkpt>
      <trkpt lat="43.64869" lon="0.65732">
        <ele>218</ele>
        <time>2022-04-16T21:54:51Z</time>
      </trkpt>
      <trkpt lat="43.64887" lon="0.6576">
        <ele>215</ele>
        <time>2022-04-16T21:55:27Z</time>
      </trkpt>
      <trkpt lat="43.64962" lon="0.65783">
        <ele>209</ele>
        <time>2022-04-16T21:57:09Z</time>
      </trkpt>
      <trkpt lat="43.65122" lon="0.65522">
        <ele>218</ele>
        <time>2022-04-16T22:02:40Z</time>
      </trkpt>
      <trkpt lat="43.65191" lon="0.65341">
        <ele>224</ele>
        <time>2022-04-16T22:05:57Z</time>
      </trkpt>
      <trkpt lat="43.65223" lon="0.6518">
        <ele>230</ele>
        <time>2022-04-16T22:08:38Z</time>
      </trkpt>
      <trkpt lat="43.65243" lon="0.65058">
        <ele>233</ele>
        <time>2022-04-16T22:10:39Z</time>
      </trkpt>
      <trkpt lat="43.65309" lon="0.64987">
        <ele>233</ele>
        <time>2022-04-16T22:12:31Z</time>
      </trkpt>
      <trkpt lat="43.65334" lon="0.64914">
        <ele>231</ele>
        <time>2022-04-16T22:13:49Z</time>
      </trkpt>
      <trkpt lat="43.65335" lon="0.64858">
        <ele>227</ele>
        <time>2022-04-16T22:14:43Z</time>
      </trkpt>
      <trkpt lat="43.65301" lon="0.64736">
        <ele>216</ele>
        <time>2022-04-16T22:16:49Z</time>
      </trkpt>
      <trkpt lat="43.65239" lon="0.64656">
        <ele>213</ele>
        <time>2022-04-16T22:18:42Z</time>
      </trkpt>
      <trkpt lat="43.65213" lon="0.6465">
        <ele>211</ele>
        <time>2022-04-16T22:19:17Z</time>
      </trkpt>
      <trkpt lat="43.65194" lon="0.64631">
        <ele>210</ele>
        <time>2022-04-16T22:19:49Z</time>
      </trkpt>
      <trkpt lat="43.65166" lon="0.64622">
        <ele>208</ele>
        <time>2022-04-16T22:20:27Z</time>
      </trkpt>
      <trkpt lat="43.6515" lon="0.6458">
        <ele>206</ele>
        <time>2022-04-16T22:21:13Z</time>
      </trkpt>
      <trkpt lat="43.65143" lon="0.64517">
        <ele>205</ele>
        <time>2022-04-16T22:22:14Z</time>
      </trkpt>
      <trkpt lat="43.65169" lon="0.64444">
        <ele>204</ele>
        <time>2022-04-16T22:23:33Z</time>
      </trkpt>
      <trkpt lat="43.65194" lon="0.64381">
        <ele>194</ele>
        <time>2022-04-16T22:24:42Z</time>
      </trkpt>
      <trkpt lat="43.65135" lon="0.64244">
        <ele>176</ele>
        <time>2022-04-16T22:27:16Z</time>
      </trkpt>
      <trkpt lat="43.65002" lon="0.64049">
        <ele>150</ele>
        <time>2022-04-16T22:31:35Z</time>
      </trkpt>
      <trkpt lat="43.65053" lon="0.63928">
        <ele>147</ele>
        <time>2022-04-16T22:33:50Z</time>
      </trkpt>
      <trkpt lat="43.65058" lon="0.63872">
        <ele>146</ele>
        <time>2022-04-16T22:34:45Z</time>
      </trkpt>
      <trkpt lat="43.65036" lon="0.63724">
        <ele>148</ele>
        <time>2022-04-16T22:37:11Z</time>
      </trkpt>
      <trkpt lat="43.65009" lon="0.63388">
        <ele>174</ele>
        <time>2022-04-16T22:42:37Z</time>
      </trkpt>
      <trkpt lat="43.65011" lon="0.63283">
        <ele>179</ele>
        <time>2022-04-16T22:44:18Z</time>
      </trkpt>
      <trkpt lat="43.65108" lon="0.63289">
        <ele>171</ele>
        <time>2022-04-16T22:46:28Z</time>
      </trkpt>
      <trkpt lat="43.65196" lon="0.63208">
        <ele>168</ele>
        <time>2022-04-16T22:48:49Z</time>
      </trkpt>
      <trkpt lat="43.65407" lon="0.63167">
        <ele>153</ele>
        <time>2022-04-16T22:53:33Z</time>
      </trkpt>
      <trkpt lat="43.65457" lon="0.63123">
        <ele>149</ele>
        <time>2022-04-16T22:54:53Z</time>
      </trkpt>
      <trkpt lat="43.65515" lon="0.63022">
        <ele>145</ele>
        <time>2022-04-16T22:56:57Z</time>
      </trkpt>
      <trkpt lat="43.65696" lon="0.62855">
        <ele>148</ele>
        <time>2022-04-16T23:01:47Z</time>
      </trkpt>
      <trkpt lat="43.65701" lon="0.62774">
        <ele>148</ele>
        <time>2022-04-16T23:03:06Z</time>
      </trkpt>
      <trkpt lat="43.65751" lon="0.6271">
        <ele>147</ele>
        <time>2022-04-16T23:04:37Z</time>
      </trkpt>
      <trkpt lat="43.65563" lon="0.61865">
        <ele>187</ele>
        <time>2022-04-16T23:18:50Z</time>
      </trkpt>
      <trkpt lat="43.65526" lon="0.61621">
        <ele>194</ele>
        <time>2022-04-16T23:22:51Z</time>
      </trkpt>
      <trkpt lat="43.65441" lon="0.61342">
        <ele>176</ele>
        <time>2022-04-16T23:27:43Z</time>
      </trkpt>
      <trkpt lat="43.65542" lon="0.61303">
        <ele>180</ele>
        <time>2022-04-16T23:30:03Z</time>
      </trkpt>
      <trkpt lat="43.6557" lon="0.6127">
        <ele>182</ele>
        <time>2022-04-16T23:30:52Z</time>
      </trkpt>
      <trkpt lat="43.6561" lon="0.61157">
        <ele>181</ele>
        <time>2022-04-16T23:32:54Z</time>
      </trkpt>
      <trkpt lat="43.65634" lon="0.6114">
        <ele>184</ele>
        <time>2022-04-16T23:33:30Z</time>
      </trkpt>
      <trkpt lat="43.65669" lon="0.61054">
        <ele>185</ele>
        <time>2022-04-16T23:35:05Z</time>
      </trkpt>
      <trkpt lat="43.6565" lon="0.61037">
        <ele>182</ele>
        <time>2022-04-16T23:35:35Z</time>
      </trkpt>
      <trkpt lat="43.65644" lon="0.61026">
        <ele>181</ele>
        <time>2022-04-16T23:35:49Z</time>
      </trkpt>
      <trkpt lat="43.65592" lon="0.60915">
        <ele>176</ele>
        <time>2022-04-16T23:37:56Z</time>
      </trkpt>
      <trkpt lat="43.65536" lon="0.6082">
        <ele>170</ele>
        <time>2022-04-16T23:39:55Z</time>
      </trkpt>
      <trkpt lat="43.65526" lon="0.60789">
        <ele>169</ele>
        <time>2022-04-16T23:40:27Z</time>
      </trkpt>
      <trkpt lat="43.65534" lon="0.60779">
        <ele>170</ele>
        <time>2022-04-16T23:40:42Z</time>
      </trkpt>
      <trkpt lat="43.65609" lon="0.60537">
        <ele>160</ele>
        <time>2022-04-16T23:44:56Z</time>
      </trkpt>
      <trkpt lat="43.65631" lon="0.60442">
        <ele>154</ele>
        <time>2022-04-16T23:46:32Z</time>
      </trkpt>
      <trkpt lat="43.65668" lon="0.60418">
        <ele>152</ele>
        <time>2022-04-16T23:47:27Z</time>
      </trkpt>
      <trkpt lat="43.65685" lon="0.60228">
        <ele>144</ele>
        <time>2022-04-16T23:50:32Z</time>
      </trkpt>
      <trkpt lat="43.65722" lon="0.59733">
        <ele>131</ele>
        <time>2022-04-16T23:58:32Z</time>
      </trkpt>
      <trkpt lat="43.65575" lon="0.59655">
        <ele>130</ele>
        <time>2022-04-17T00:02:02Z</time>
      </trkpt>
      <trkpt lat="43.65599" lon="0.59561">
        <ele>130</ele>
        <time>2022-04-17T00:03:38Z</time>
      </trkpt>
      <trkpt lat="43.65571" lon="0.59551">
        <ele>130</ele>
        <time>2022-04-17T00:04:17Z</time>
      </trkpt>
      <trkpt lat="43.6557" lon="0.59516">
        <ele>129</ele>
        <time>2022-04-17T00:04:51Z</time>
      </trkpt>
      <trkpt lat="43.6555" lon="0.59484">
        <ele>129</ele>
        <time>2022-04-17T00:05:32Z</time>
      </trkpt>
      <trkpt lat="43.6555" lon="0.59446">
        <ele>129</ele>
        <time>2022-04-17T00:06:08Z</time>
      </trkpt>
      <trkpt lat="43.65558" lon="0.59401">
        <ele>128</ele>
        <time>2022-04-17T00:06:53Z</time>
      </trkpt>
      <trkpt lat="43.65537" lon="0.59354">
        <ele>128</ele>
        <time>2022-04-17T00:07:46Z</time>
      </trkpt>
      <trkpt lat="43.65535" lon="0.59326">
        <ele>128</ele>
        <time>2022-04-17T00:08:14Z</time>
      </trkpt>
      <trkpt lat="43.6556" lon="0.5926">
        <ele>126</ele>
        <time>2022-04-17T00:09:26Z</time>
      </trkpt>
      <trkpt lat="43.65574" lon="0.59256">
        <ele>126</ele>
        <time>2022-04-17T00:09:45Z</time>
      </trkpt>
      <trkpt lat="43.65563" lon="0.59231">
        <ele>126</ele>
        <time>2022-04-17T00:10:13Z</time>
      </trkpt>
      <trkpt lat="43.65443" lon="0.59193">
        <ele>127</ele>
        <time>2022-04-17T00:12:57Z</time>
      </trkpt>
      <trkpt lat="43.65382" lon="0.59162">
        <ele>128</ele>
        <time>2022-04-17T00:14:24Z</time>
      </trkpt>
      <trkpt lat="43.65332" lon="0.59133">
        <ele>130</ele>
        <time>2022-04-17T00:15:36Z</time>
      </trkpt>
      <trkpt lat="43.65275" lon="0.59119">
        <ele>129</ele>
        <time>2022-04-17T00:16:54Z</time>
      </trkpt>
      <trkpt lat="43.65214" lon="0.59117">
        <ele>129</ele>
        <time>2022-04-17T00:18:15Z</time>
      </trkpt>
      <trkpt lat="43.65102" lon="0.59143">
        <ele>129</ele>
        <time>2022-04-17T00:20:46Z</time>
      </trkpt>
      <trkpt lat="43.65067" lon="0.59145">
        <ele>129</ele>
        <time>2022-04-17T00:21:33Z</time>
      </trkpt>
      <trkpt lat="43.65009" lon="0.59132">
        <ele>131</ele>
        <time>2022-04-17T00:22:52Z</time>
      </trkpt>
      <trkpt lat="43.64926" lon="0.59055">
        <ele>132</ele>
        <time>2022-04-17T00:25:05Z</time>
      </trkpt>
      <trkpt lat="43.6488" lon="0.59026">
        <ele>132</ele>
        <time>2022-04-17T00:26:13Z</time>
      </trkpt>
      <trkpt lat="43.64898" lon="0.58954">
        <ele>133</ele>
        <time>2022-04-17T00:27:26Z</time>
      </trkpt>
      <trkpt lat="43.64884" lon="0.58929">
        <ele>134</ele>
        <time>2022-04-17T00:27:57Z</time>
      </trkpt>
      <trkpt lat="43.64729" lon="0.58865">
        <ele>134</ele>
        <time>2022-04-17T00:31:32Z</time>
      </trkpt>
      <trkpt lat="43.64736" lon="0.58856">
        <ele>135</ele>
        <time>2022-04-17T00:31:45Z</time>
      </trkpt>
      <trkpt lat="43.64758" lon="0.58758">
        <ele>150</ele>
        <time>2022-04-17T00:33:24Z</time>
      </trkpt>
      <trkpt lat="43.64742" lon="0.58746">
        <ele>152</ele>
        <time>2022-04-17T00:33:49Z</time>
      </trkpt>
      <trkpt lat="43.64701" lon="0.58739">
        <ele>152</ele>
        <time>2022-04-17T00:34:44Z</time>
      </trkpt>
      <trkpt lat="43.64704" lon="0.58699">
        <ele>160</ele>
        <time>2022-04-17T00:35:23Z</time>
      </trkpt>
      <trkpt lat="43.6471" lon="0.58599">
        <ele>171</ele>
        <time>2022-04-17T00:36:59Z</time>
      </trkpt>
      <trkpt lat="43.64684" lon="0.58605">
        <ele>171</ele>
        <time>2022-04-17T00:37:35Z</time>
      </trkpt>
      <trkpt lat="43.64655" lon="0.586">
        <ele>171</ele>
        <time>2022-04-17T00:38:14Z</time>
      </trkpt>
      <trkpt lat="43.64655" lon="0.58494">
        <ele>175</ele>
        <time>2022-04-17T00:39:56Z</time>
      </trkpt>
      <trkpt lat="43.64648" lon="0.58457">
        <ele>175</ele>
        <time>2022-04-17T00:40:33Z</time>
      </trkpt>
      <trkpt lat="43.64675" lon="0.58389">
        <ele>175</ele>
        <time>2022-04-17T00:41:48Z</time>
      </trkpt>
      <trkpt lat="43.6468" lon="0.58348">
        <ele>175</ele>
        <time>2022-04-17T00:42:28Z</time>
      </trkpt>
      <trkpt lat="43.64653" lon="0.58306">
        <ele>175</ele>
        <time>2022-04-17T00:43:22Z</time>
      </trkpt>
    </trkseg>
  </trk>
</gpx>